METAR Data
IDs: Format: Raw Decoded Include TAF

Data at: 1251 UTC 15 Jul 2020

KRZL 151235Z AUTO 00000KT 10SM CLR 21/18 A3007 RMK AO2